createdAt,value
2023-05-12T06:39:58.185Z,2.50
2023-05-12T06:42:25.009Z,2.90
2023-05-12T06:44:51.498Z,2.70
2023-05-12T06:47:18.090Z,2.80
2023-05-12T06:49:44.471Z,2.80
2023-05-12T06:52:13.115Z,2.60
2023-05-12T06:54:39.306Z,3.70
2023-05-12T06:57:05.665Z,2.70
2023-05-12T06:59:32.243Z,2.50
2023-05-12T07:01:58.823Z,2.30
2023-05-12T07:04:26.541Z,2.60
2023-05-12T07:06:53.068Z,2.70
2023-05-12T07:09:19.481Z,2.30
2023-05-12T07:11:46.095Z,2.60
2023-05-12T07:14:12.315Z,2.40
2023-05-12T07:16:39.014Z,2.30
2023-05-12T07:19:08.170Z,2.30
2023-05-12T07:21:35.732Z,2.50
2023-05-12T07:24:02.167Z,2.30
2023-05-12T07:26:29.155Z,2.30
2023-05-12T07:28:55.421Z,2.20
2023-05-12T07:31:21.862Z,2.50
2023-05-12T07:33:48.422Z,2.50
2023-05-12T07:36:14.683Z,2.60
2023-05-12T07:38:41.450Z,2.50
2023-05-12T07:41:07.730Z,2.50
2023-05-12T07:43:34.346Z,2.20
2023-05-12T07:46:00.893Z,2.40
2023-05-12T07:48:27.275Z,2.10
2023-05-12T07:50:53.864Z,2.20
2023-05-12T07:53:20.289Z,2.20
2023-05-12T07:55:46.587Z,2.10
2023-05-12T07:58:12.972Z,2.30
2023-05-12T08:00:39.954Z,2.20
2023-05-12T08:03:07.066Z,2.60
2023-05-12T08:05:33.502Z,2.40
2023-05-12T08:07:59.962Z,2.40
2023-05-12T08:10:29.028Z,2.30
2023-05-12T08:12:55.989Z,2.50
2023-05-12T08:15:22.668Z,2.50
2023-05-12T08:17:49.218Z,2.30
2023-05-12T08:20:15.419Z,2.20
2023-05-12T08:22:41.869Z,2.30
2023-05-12T08:25:10.363Z,2.50
2023-05-12T08:27:38.614Z,2.30
2023-05-12T08:30:06.439Z,2.10
2023-05-12T08:32:32.807Z,2.50
2023-05-12T08:35:00.294Z,2.30
2023-05-12T08:37:27.104Z,2.40
2023-05-12T08:39:53.626Z,2.40
2023-05-12T08:42:41.958Z,2.20
2023-05-12T08:45:10.504Z,2.40
2023-05-12T08:47:37.657Z,2.20
2023-05-12T08:50:07.451Z,2.20
2023-05-12T08:52:35.168Z,2.60
2023-05-12T08:55:03.728Z,2.30
2023-05-12T08:57:30.771Z,2.90
2023-05-12T08:59:58.652Z,2.00
2023-05-12T09:02:25.277Z,2.20
2023-05-12T09:04:54.256Z,2.30
2023-05-12T09:07:23.776Z,2.10
2023-05-12T09:09:56.070Z,2.20
2023-05-12T09:12:24.256Z,2.10
2023-05-12T09:14:59.686Z,2.60
2023-05-12T09:17:26.493Z,2.60
2023-05-12T09:19:52.932Z,2.30
2023-05-12T09:22:27.797Z,2.30
2023-05-12T09:24:54.076Z,2.20
2023-05-12T09:27:29.679Z,2.00
2023-05-12T09:29:59.621Z,2.20
2023-05-12T09:32:35.422Z,2.40
2023-05-12T09:35:07.189Z,2.10
2023-05-12T09:37:34.701Z,2.00
2023-05-12T09:40:07.366Z,2.20
2023-05-12T09:42:35.230Z,2.50
2023-05-12T09:45:09.266Z,2.20
2023-05-12T09:47:37.389Z,2.10
2023-05-12T09:50:08.005Z,2.30
2023-05-12T09:52:38.994Z,2.20
2023-05-12T09:55:10.454Z,2.00
2023-05-12T09:57:42.469Z,2.20
2023-05-12T10:00:25.769Z,2.10
2023-05-12T10:03:00.691Z,2.50
2023-05-12T10:05:28.655Z,2.30
2023-05-12T10:07:59.143Z,2.10
2023-05-12T10:10:25.922Z,2.20
2023-05-12T10:13:03.918Z,2.30
2023-05-12T10:15:31.242Z,2.30
2023-05-12T10:17:59.807Z,2.20
2023-05-12T10:20:28.422Z,2.90
2023-05-12T10:22:57.499Z,2.10
2023-05-12T10:25:24.077Z,1.90
2023-05-12T10:27:51.754Z,2.30
2023-05-12T10:42:52.437Z,2.20
2023-05-12T10:45:42.771Z,1.80
2023-05-12T11:00:06.748Z,1.90
2023-05-12T11:02:35.965Z,2.30
2023-05-12T11:05:10.208Z,2.00
2023-05-12T11:07:37.585Z,2.20
2023-05-12T11:10:07.873Z,2.20
2023-05-12T11:12:35.260Z,2.30
2023-05-12T11:15:03.267Z,2.10
2023-05-12T11:17:31.529Z,2.00
2023-05-12T11:19:57.902Z,2.20
2023-05-12T11:22:24.557Z,2.40
2023-05-12T11:24:51.984Z,2.40
2023-05-12T11:27:20.529Z,2.00
2023-05-12T11:30:04.921Z,2.20
2023-05-12T11:32:31.251Z,2.20
2023-05-12T11:47:31.145Z,2.10
2023-05-12T11:50:50.691Z,2.40
2023-05-12T11:54:10.851Z,2.10
2023-05-12T11:57:39.607Z,1.90
2023-05-12T12:01:29.859Z,1.80
2023-05-12T12:04:51.885Z,2.40
2023-05-12T12:07:31.750Z,2.20
2023-05-12T12:10:11.753Z,2.20
2023-05-12T12:12:40.612Z,2.00
2023-05-12T12:15:09.883Z,1.90
2023-05-12T12:17:38.515Z,2.00
2023-05-12T12:20:07.205Z,2.00
2023-05-12T12:22:35.552Z,2.10
2023-05-12T12:25:03.693Z,2.20
2023-05-12T12:27:31.720Z,2.10
2023-05-12T12:29:59.300Z,2.00
2023-05-12T12:32:27.170Z,2.10
2023-05-12T12:34:59.527Z,2.10
2023-05-12T12:37:27.629Z,2.10
2023-05-12T12:39:55.779Z,2.30
2023-05-12T12:42:23.392Z,2.30
2023-05-12T12:44:51.485Z,2.30
2023-05-12T12:47:19.255Z,2.10
2023-05-12T12:49:47.414Z,2.20
2023-05-12T12:52:15.055Z,2.20
2023-05-12T12:54:42.720Z,2.10
2023-05-12T12:57:10.864Z,2.10
2023-05-12T12:59:38.466Z,2.20
2023-05-12T13:02:06.396Z,2.00
2023-05-12T13:04:34.220Z,2.20
2023-05-12T13:07:02.128Z,2.10
2023-05-12T13:09:29.753Z,2.10
2023-05-12T13:11:58.225Z,2.10
2023-05-12T13:14:26.504Z,2.20
2023-05-12T13:16:54.157Z,2.10
2023-05-12T13:19:22.114Z,2.30
2023-05-12T13:21:49.827Z,2.20
2023-05-12T13:24:17.671Z,2.30
2023-05-12T13:26:45.393Z,2.30
2023-05-12T13:29:13.130Z,2.00
2023-05-12T13:31:41.272Z,2.10
2023-05-12T13:34:08.997Z,2.30
2023-05-12T13:36:36.825Z,2.20
2023-05-12T13:39:04.947Z,2.40
2023-05-12T13:41:32.689Z,2.30
2023-05-12T13:44:00.517Z,2.20
2023-05-12T13:46:28.151Z,2.40
2023-05-12T13:48:56.002Z,2.30
2023-05-12T13:51:24.067Z,2.20
2023-05-12T13:53:52.530Z,2.00
2023-05-12T13:56:20.305Z,2.20
2023-05-12T13:58:47.986Z,2.20
2023-05-12T14:01:16.043Z,2.10
2023-05-12T14:03:43.850Z,2.30
2023-05-12T14:06:14.898Z,2.10
2023-05-12T14:08:45.709Z,2.10
2023-05-12T14:11:13.479Z,2.10
2023-05-12T14:13:41.082Z,2.10
2023-05-12T14:16:09.162Z,2.00
2023-05-12T14:18:37.610Z,2.10
2023-05-12T14:21:06.370Z,2.30
2023-05-12T14:23:34.066Z,2.00
2023-05-12T14:26:03.622Z,2.10
2023-05-12T14:28:31.621Z,1.90
2023-05-12T14:30:59.510Z,2.10
2023-05-12T14:33:27.190Z,2.10
2023-05-12T14:36:05.983Z,2.10
2023-05-12T14:38:35.893Z,2.00
2023-05-12T14:41:04.057Z,2.10
2023-05-12T14:43:31.669Z,1.90
2023-05-12T14:45:59.523Z,2.10
2023-05-12T14:48:28.275Z,2.00
2023-05-12T14:50:57.162Z,2.10
2023-05-12T14:53:24.863Z,2.00
2023-05-12T14:55:52.977Z,2.20
2023-05-12T14:58:24.313Z,2.20
2023-05-12T15:00:52.746Z,2.20
2023-05-12T15:03:21.235Z,2.10
2023-05-12T15:06:04.584Z,2.00
2023-05-12T15:08:34.054Z,2.00
2023-05-12T15:11:06.998Z,2.00
2023-05-12T15:13:34.690Z,2.20
2023-05-12T15:16:04.517Z,1.90
2023-05-12T15:18:32.189Z,1.90
2023-05-12T15:20:59.851Z,2.00
2023-05-12T15:23:27.687Z,2.10
2023-05-12T15:25:55.335Z,2.00
2023-05-12T15:28:22.967Z,2.00
2023-05-12T15:30:56.552Z,2.00
2023-05-12T15:33:25.020Z,2.00
2023-05-12T15:35:52.682Z,2.10
2023-05-12T15:38:24.085Z,2.00
2023-05-12T15:40:51.932Z,2.00
2023-05-12T15:43:19.614Z,2.20
2023-05-12T15:45:47.334Z,2.20
2023-05-12T15:48:17.984Z,2.10
2023-05-12T15:50:45.599Z,2.10
2023-05-12T15:53:15.850Z,1.90
2023-05-12T15:55:44.020Z,2.00
2023-05-12T15:58:11.738Z,2.00
2023-05-12T16:00:39.406Z,1.90
2023-05-12T16:03:07.626Z,2.00
2023-05-12T16:05:38.021Z,2.00
2023-05-12T16:08:05.777Z,2.00
2023-05-12T16:10:34.152Z,2.20
2023-05-12T16:13:01.884Z,2.40
2023-05-12T16:15:29.500Z,2.10
2023-05-12T16:17:57.254Z,2.10
2023-05-12T16:20:24.883Z,2.20
2023-05-12T16:22:53.447Z,2.20
2023-05-12T16:25:21.337Z,1.90
2023-05-12T16:27:49.489Z,2.10
2023-05-12T16:30:19.348Z,2.00
2023-05-12T16:32:48.394Z,2.00
2023-05-12T16:35:18.901Z,2.20
2023-05-12T16:37:47.361Z,2.20
2023-05-12T16:40:15.441Z,1.90
2023-05-12T16:42:43.066Z,2.10
2023-05-12T16:45:11.180Z,2.00
2023-05-12T16:47:38.933Z,2.20
2023-05-12T16:50:07.637Z,2.50
2023-05-12T16:52:35.266Z,2.50
2023-05-12T16:55:04.114Z,34.90
2023-05-12T16:57:33.720Z,14.50
2023-05-12T17:00:07.835Z,3.90
2023-05-12T17:02:35.631Z,2.40
2023-05-12T17:07:01.455Z,2.30
2023-05-12T17:10:19.756Z,2.20
2023-05-12T17:14:04.166Z,2.30
2023-05-12T17:17:35.479Z,3.00
2023-05-12T17:21:32.758Z,3.20
2023-05-12T17:24:02.679Z,2.30
2023-05-12T17:26:30.740Z,3.00
2023-05-12T17:28:58.442Z,3.40
2023-05-12T17:31:53.751Z,2.90
2023-05-12T17:35:32.693Z,2.40
2023-05-12T17:39:15.736Z,1.90
2023-05-12T17:42:53.229Z,2.10
2023-05-12T17:46:49.210Z,5.00
2023-05-12T17:50:12.629Z,4.00
2023-05-12T17:52:41.469Z,4.40
2023-05-12T17:55:10.946Z,5.20
2023-05-12T17:57:38.750Z,8.30
2023-05-12T18:00:10.417Z,3.20
2023-05-12T18:02:39.273Z,5.90
2023-05-12T18:05:07.816Z,2.90
2023-05-12T18:07:36.169Z,4.00
2023-05-12T18:10:09.366Z,2.70
2023-05-12T18:12:38.658Z,2.60
2023-05-12T18:15:07.304Z,2.50
2023-05-12T18:17:35.028Z,2.60
2023-05-12T18:20:04.026Z,2.60
2023-05-12T18:22:33.667Z,2.60
2023-05-12T18:25:01.425Z,2.40
2023-05-12T18:27:29.042Z,2.60
2023-05-12T18:29:56.733Z,2.70
2023-05-12T18:32:26.346Z,2.60
2023-05-12T18:34:53.953Z,2.90
2023-05-12T18:37:22.190Z,3.10
2023-05-12T18:39:49.849Z,2.70
2023-05-12T18:42:17.501Z,3.20
2023-05-12T18:44:45.108Z,3.30
2023-05-12T18:47:12.774Z,3.00
2023-05-12T18:49:40.652Z,3.20
2023-05-12T18:52:08.722Z,3.10
2023-05-12T18:54:37.745Z,3.30
2023-05-12T18:57:05.933Z,3.80
2023-05-12T18:59:33.604Z,3.80
2023-05-12T19:02:01.367Z,3.90
2023-05-12T19:04:29.237Z,3.80
2023-05-12T19:06:56.857Z,3.90
2023-05-12T19:09:26.509Z,4.50
2023-05-12T19:11:57.278Z,3.80
2023-05-12T19:14:25.037Z,4.10
2023-05-12T19:16:54.945Z,4.30
2023-05-12T19:19:23.008Z,4.70
2023-05-12T19:21:50.669Z,4.70
2023-05-12T19:24:18.275Z,4.30
2023-05-12T19:26:45.895Z,4.30
2023-05-12T19:29:13.811Z,4.30
2023-05-12T19:31:41.585Z,4.30
2023-05-12T19:34:09.437Z,4.40
2023-05-12T19:36:37.177Z,4.00
2023-05-12T19:39:04.811Z,4.70
2023-05-12T19:41:32.506Z,4.90
2023-05-12T19:44:00.312Z,4.70
2023-05-12T19:46:29.378Z,4.70
2023-05-12T19:48:57.017Z,5.30
2023-05-12T19:51:25.002Z,4.70
2023-05-12T19:53:52.738Z,5.90
2023-05-12T19:56:20.427Z,5.80
2023-05-12T19:58:48.571Z,6.00
2023-05-12T20:01:16.303Z,6.30
2023-05-12T20:03:44.102Z,6.80
2023-05-12T20:06:11.932Z,7.10
2023-05-12T20:08:39.665Z,6.80
2023-05-12T20:11:07.451Z,6.70
2023-05-12T20:13:35.195Z,6.70
2023-05-12T20:16:03.066Z,6.30
2023-05-12T20:18:30.679Z,6.30
2023-05-12T20:20:58.374Z,6.20
2023-05-12T20:23:26.087Z,6.30
2023-05-12T20:25:53.811Z,6.40
2023-05-12T20:28:23.842Z,6.40
2023-05-12T20:30:51.869Z,6.20
2023-05-12T20:33:19.667Z,6.50
2023-05-12T20:35:47.696Z,6.10
2023-05-12T20:38:15.912Z,6.20
2023-05-12T20:40:43.508Z,6.10
2023-05-12T20:43:13.427Z,6.50
2023-05-12T20:45:41.404Z,5.90
2023-05-12T20:48:09.250Z,5.90
2023-05-12T20:50:37.070Z,5.60
2023-05-12T20:53:04.955Z,6.10
2023-05-12T20:55:33.183Z,5.90
2023-05-12T20:58:00.885Z,6.00
2023-05-12T21:00:28.512Z,5.50
2023-05-12T21:02:56.786Z,5.70
2023-05-12T21:05:24.449Z,5.60
2023-05-12T21:07:52.042Z,6.20
2023-05-12T21:10:20.419Z,5.80
2023-05-12T21:12:48.376Z,5.90
2023-05-12T21:15:16.291Z,6.00
2023-05-12T21:17:44.004Z,5.80
2023-05-12T21:20:12.051Z,6.00
2023-05-12T21:22:41.476Z,5.70
2023-05-12T21:25:10.063Z,6.30
2023-05-12T21:27:40.679Z,5.60
2023-05-12T21:30:10.072Z,6.00
2023-05-12T21:32:37.894Z,6.20
2023-05-12T21:35:06.826Z,5.70
2023-05-12T21:37:34.545Z,5.80
2023-05-12T21:40:02.547Z,5.70
2023-05-12T21:42:32.201Z,6.40
2023-05-12T21:44:59.778Z,5.20
2023-05-12T21:47:27.432Z,5.90
2023-05-12T21:49:56.047Z,5.30
2023-05-12T21:52:23.863Z,6.00
2023-05-12T21:54:51.500Z,6.00
2023-05-12T21:57:19.295Z,5.90
2023-05-12T21:59:46.970Z,5.90
2023-05-12T22:09:38.305Z,5.40
2023-05-12T22:12:06.402Z,6.20
2023-05-12T22:14:34.163Z,6.00
2023-05-12T22:17:03.103Z,6.10
2023-05-12T22:19:30.956Z,6.00
2023-05-12T22:21:59.927Z,6.40
2023-05-12T22:24:27.813Z,6.30
2023-05-12T22:26:55.507Z,6.00
2023-05-12T22:29:23.160Z,6.70
2023-05-12T22:31:50.902Z,6.30
2023-05-12T22:34:18.614Z,6.60
2023-05-12T22:36:46.273Z,6.00
2023-05-12T22:39:14.672Z,7.00
2023-05-12T22:41:42.416Z,6.80
2023-05-12T22:44:10.063Z,7.10
2023-05-12T22:46:37.768Z,6.90
2023-05-12T22:49:05.367Z,7.10
2023-05-12T22:51:32.999Z,6.90
2023-05-12T22:54:00.618Z,7.20
2023-05-12T22:56:28.350Z,7.40
2023-05-12T22:58:56.243Z,7.40
2023-05-12T23:01:23.973Z,7.70
2023-05-12T23:03:51.773Z,7.70
2023-05-12T23:06:19.432Z,7.20
2023-05-12T23:08:47.060Z,7.60
2023-05-12T23:11:15.398Z,7.30
2023-05-12T23:13:43.011Z,7.50
2023-05-12T23:16:10.674Z,8.00
2023-05-12T23:18:38.516Z,7.90
2023-05-12T23:21:06.334Z,8.30
2023-05-12T23:23:33.942Z,8.30
2023-05-12T23:26:02.145Z,8.50
2023-05-12T23:28:29.721Z,9.00
2023-05-12T23:30:57.350Z,9.00
2023-05-12T23:33:25.052Z,8.90
2023-05-12T23:35:53.069Z,9.30
2023-05-12T23:38:20.789Z,9.20
2023-05-12T23:40:48.556Z,9.40
2023-05-12T23:43:16.252Z,9.00
2023-05-12T23:45:45.043Z,9.60
2023-05-12T23:48:12.742Z,9.40
2023-05-12T23:50:40.392Z,9.80
2023-05-12T23:53:08.144Z,9.20
2023-05-12T23:55:37.297Z,9.20
2023-05-12T23:58:05.118Z,9.60
